Terminal Aerodrome Forecast
Issued by NWS

Home | Current Version | Previous Version | Text Only | Print | Product List | Glossary Off
Versions: 1 2 3 4 5 6 7 8 9 10 11 12 13 14 15 16 17 18 19 20

000
FTUS43 KGRB 051700
TAFAUW
TAF
KAUW 051724Z 0518/0618 26008G13KT P6SM SKC
     FM060000 23005KT P6SM SCT250
     FM060800 21009G15KT P6SM BKN120
     FM061300 22012G22KT P6SM SCT025 BKN070
     FM061500 23014G24KT P6SM -SN BKN018=

USA.gov is the U.S. government's official web portal to all federal, state and local government web resources and services.